sensor_id;sensor_type;location;lat;lon;timestamp;temperature;humidity
12708;DHT22;6418;50.824;4.718;2023-03-14T00:02:25;11.40;99.90
12708;DHT22;6418;50.824;4.718;2023-03-14T00:04:54;11.30;99.90
12708;DHT22;6418;50.824;4.718;2023-03-14T00:07:21;11.30;99.90
12708;DHT22;6418;50.824;4.718;2023-03-14T00:09:50;11.30;99.90
12708;DHT22;6418;50.824;4.718;2023-03-14T00:12:16;11.20;99.90
12708;DHT22;6418;50.824;4.718;2023-03-14T00:14:45;11.20;99.90
12708;DHT22;6418;50.824;4.718;2023-03-14T00:17:12;11.20;99.90
12708;DHT22;6418;50.824;4.718;2023-03-14T00:19:39;11.20;99.90
12708;DHT22;6418;50.824;4.718;2023-03-14T00:22:06;11.20;99.90
12708;DHT22;6418;50.824;4.718;2023-03-14T00:24:33;11.20;99.90
12708;DHT22;6418;50.824;4.718;2023-03-14T00:27:00;11.10;99.90
12708;DHT22;6418;50.824;4.718;2023-03-14T00:29:27;11.10;99.90
12708;DHT22;6418;50.824;4.718;2023-03-14T00:31:55;11.10;99.90
12708;DHT22;6418;50.824;4.718;2023-03-14T00:34:22;11.00;99.90
12708;DHT22;6418;50.824;4.718;2023-03-14T00:36:48;11.10;99.90
12708;DHT22;6418;50.824;4.718;2023-03-14T00:39:15;11.00;99.90
12708;DHT22;6418;50.824;4.718;2023-03-14T00:41:42;11.00;99.90
12708;DHT22;6418;50.824;4.718;2023-03-14T00:44:09;11.00;99.90
12708;DHT22;6418;50.824;4.718;2023-03-14T00:46:36;11.00;99.90
12708;DHT22;6418;50.824;4.718;2023-03-14T00:49:04;10.90;99.90
12708;DHT22;6418;50.824;4.718;2023-03-14T00:51:31;10.90;99.90
12708;DHT22;6418;50.824;4.718;2023-03-14T00:53:59;10.90;99.90
12708;DHT22;6418;50.824;4.718;2023-03-14T00:56:26;10.90;99.90
12708;DHT22;6418;50.824;4.718;2023-03-14T00:58:53;10.90;99.90
12708;DHT22;6418;50.824;4.718;2023-03-14T01:01:21;10.90;99.90
12708;DHT22;6418;50.824;4.718;2023-03-14T01:03:50;10.90;99.90
12708;DHT22;6418;50.824;4.718;2023-03-14T01:06:20;10.90;99.90
12708;DHT22;6418;50.824;4.718;2023-03-14T01:08:48;10.90;99.90
12708;DHT22;6418;50.824;4.718;2023-03-14T01:11:17;10.90;99.90
12708;DHT22;6418;50.824;4.718;2023-03-14T01:13:44;10.90;99.90
12708;DHT22;6418;50.824;4.718;2023-03-14T01:16:12;10.90;99.90
12708;DHT22;6418;50.824;4.718;2023-03-14T01:18:40;10.90;99.90
12708;DHT22;6418;50.824;4.718;2023-03-14T01:21:11;10.80;99.90
12708;DHT22;6418;50.824;4.718;2023-03-14T01:23:40;10.80;99.90
12708;DHT22;6418;50.824;4.718;2023-03-14T01:26:09;10.80;99.90
12708;DHT22;6418;50.824;4.718;2023-03-14T01:28:36;10.80;99.90
12708;DHT22;6418;50.824;4.718;2023-03-14T01:31:04;11.20;99.90
12708;DHT22;6418;50.824;4.718;2023-03-14T01:33:31;10.80;99.90
12708;DHT22;6418;50.824;4.718;2023-03-14T01:35:58;10.80;99.90
12708;DHT22;6418;50.824;4.718;2023-03-14T01:38:27;10.80;99.90
12708;DHT22;6418;50.824;4.718;2023-03-14T01:40:56;10.70;99.90
12708;DHT22;6418;50.824;4.718;2023-03-14T01:43:23;10.70;99.90
12708;DHT22;6418;50.824;4.718;2023-03-14T01:48:57;10.70;99.90
12708;DHT22;6418;50.824;4.718;2023-03-14T01:51:31;10.60;99.90
12708;DHT22;6418;50.824;4.718;2023-03-14T01:54:05;10.60;99.90
12708;DHT22;6418;50.824;4.718;2023-03-14T01:56:35;10.50;99.90
12708;DHT22;6418;50.824;4.718;2023-03-14T01:59:04;10.50;99.90
12708;DHT22;6418;50.824;4.718;2023-03-14T02:01:33;10.50;99.90
12708;DHT22;6418;50.824;4.718;2023-03-14T02:04:04;10.50;99.90
12708;DHT22;6418;50.824;4.718;2023-03-14T02:06:37;10.40;99.90
12708;DHT22;6418;50.824;4.718;2023-03-14T02:09:05;10.50;99.90
12708;DHT22;6418;50.824;4.718;2023-03-14T02:11:34;10.40;99.90
12708;DHT22;6418;50.824;4.718;2023-03-14T02:14:02;10.30;99.90
12708;DHT22;6418;50.824;4.718;2023-03-14T02:16:30;10.30;99.90
12708;DHT22;6418;50.824;4.718;2023-03-14T02:18:56;10.20;99.90
12708;DHT22;6418;50.824;4.718;2023-03-14T02:21:27;10.20;99.90
12708;DHT22;6418;50.824;4.718;2023-03-14T02:24:09;10.10;99.90
12708;DHT22;6418;50.824;4.718;2023-03-14T02:26:40;10.10;99.90
12708;DHT22;6418;50.824;4.718;2023-03-14T02:29:09;10.10;99.90
12708;DHT22;6418;50.824;4.718;2023-03-14T02:31:36;10.00;99.90
12708;DHT22;6418;50.824;4.718;2023-03-14T02:34:03;10.00;99.90
12708;DHT22;6418;50.824;4.718;2023-03-14T02:36:31;9.90;99.90
12708;DHT22;6418;50.824;4.718;2023-03-14T02:39:14;9.90;99.90
12708;DHT22;6418;50.824;4.718;2023-03-14T02:41:42;9.80;99.90
12708;DHT22;6418;50.824;4.718;2023-03-14T02:44:12;9.90;99.90
12708;DHT22;6418;50.824;4.718;2023-03-14T02:46:38;9.80;99.90
12708;DHT22;6418;50.824;4.718;2023-03-14T02:49:08;9.80;99.90
12708;DHT22;6418;50.824;4.718;2023-03-14T02:51:36;9.80;99.90
12708;DHT22;6418;50.824;4.718;2023-03-14T02:54:03;9.70;99.90
12708;DHT22;6418;50.824;4.718;2023-03-14T02:56:30;9.70;99.90
12708;DHT22;6418;50.824;4.718;2023-03-14T02:58:57;9.70;99.90
12708;DHT22;6418;50.824;4.718;2023-03-14T03:01:25;9.70;99.90
12708;DHT22;6418;50.824;4.718;2023-03-14T03:03:53;9.70;99.90
12708;DHT22;6418;50.824;4.718;2023-03-14T03:06:20;9.70;99.90
12708;DHT22;6418;50.824;4.718;2023-03-14T03:08:47;9.80;99.90
12708;DHT22;6418;50.824;4.718;2023-03-14T03:11:14;9.70;99.90
12708;DHT22;6418;50.824;4.718;2023-03-14T03:13:41;9.60;99.90
12708;DHT22;6418;50.824;4.718;2023-03-14T03:16:08;9.70;99.90
12708;DHT22;6418;50.824;4.718;2023-03-14T03:18:36;9.70;99.90
12708;DHT22;6418;50.824;4.718;2023-03-14T03:21:04;9.70;99.90
12708;DHT22;6418;50.824;4.718;2023-03-14T03:23:33;9.70;99.90
12708;DHT22;6418;50.824;4.718;2023-03-14T03:26:00;9.70;99.90
12708;DHT22;6418;50.824;4.718;2023-03-14T03:28:27;9.60;99.90
12708;DHT22;6418;50.824;4.718;2023-03-14T03:30:54;9.70;99.90
12708;DHT22;6418;50.824;4.718;2023-03-14T03:33:21;9.70;99.90
12708;DHT22;6418;50.824;4.718;2023-03-14T03:35:51;9.70;99.90
12708;DHT22;6418;50.824;4.718;2023-03-14T03:38:18;9.70;99.90
12708;DHT22;6418;50.824;4.718;2023-03-14T03:40:45;9.70;99.90
12708;DHT22;6418;50.824;4.718;2023-03-14T03:43:12;9.70;99.90
12708;DHT22;6418;50.824;4.718;2023-03-14T03:45:39;9.80;99.90
12708;DHT22;6418;50.824;4.718;2023-03-14T03:48:06;9.70;99.90
12708;DHT22;6418;50.824;4.718;2023-03-14T03:50:33;9.70;99.90
12708;DHT22;6418;50.824;4.718;2023-03-14T03:53:01;9.70;99.90
12708;DHT22;6418;50.824;4.718;2023-03-14T03:55:28;9.70;99.90
12708;DHT22;6418;50.824;4.718;2023-03-14T03:57:55;9.70;99.90
12708;DHT22;6418;50.824;4.718;2023-03-14T04:00:22;9.70;99.90
12708;DHT22;6418;50.824;4.718;2023-03-14T04:02:49;9.70;99.90
12708;DHT22;6418;50.824;4.718;2023-03-14T04:05:16;9.70;99.90
12708;DHT22;6418;50.824;4.718;2023-03-14T04:07:43;9.80;99.90
12708;DHT22;6418;50.824;4.718;2023-03-14T04:10:11;9.80;99.90
12708;DHT22;6418;50.824;4.718;2023-03-14T04:12:38;9.80;99.90
12708;DHT22;6418;50.824;4.718;2023-03-14T04:15:06;9.70;99.90
12708;DHT22;6418;50.824;4.718;2023-03-14T04:17:33;9.70;99.90
12708;DHT22;6418;50.824;4.718;2023-03-14T04:20:00;9.70;99.90
12708;DHT22;6418;50.824;4.718;2023-03-14T04:22:29;9.80;99.90
12708;DHT22;6418;50.824;4.718;2023-03-14T04:24:56;9.80;99.90
12708;DHT22;6418;50.824;4.718;2023-03-14T04:27:24;9.80;99.90
12708;DHT22;6418;50.824;4.718;2023-03-14T04:29:51;9.70;99.90
12708;DHT22;6418;50.824;4.718;2023-03-14T04:32:18;9.80;99.90
12708;DHT22;6418;50.824;4.718;2023-03-14T04:34:45;9.80;99.90
12708;DHT22;6418;50.824;4.718;2023-03-14T04:37:12;9.70;99.90
12708;DHT22;6418;50.824;4.718;2023-03-14T04:39:39;9.80;99.90
12708;DHT22;6418;50.824;4.718;2023-03-14T04:42:06;9.80;99.90
12708;DHT22;6418;50.824;4.718;2023-03-14T04:44:34;9.80;99.90
12708;DHT22;6418;50.824;4.718;2023-03-14T04:47:01;9.80;99.90
12708;DHT22;6418;50.824;4.718;2023-03-14T04:49:28;9.80;99.90
12708;DHT22;6418;50.824;4.718;2023-03-14T04:51:55;9.70;99.90
12708;DHT22;6418;50.824;4.718;2023-03-14T04:54:21;9.80;99.90
12708;DHT22;6418;50.824;4.718;2023-03-14T04:56:48;9.80;99.90
12708;DHT22;6418;50.824;4.718;2023-03-14T04:59:15;9.80;99.90
12708;DHT22;6418;50.824;4.718;2023-03-14T05:01:43;9.80;99.90
12708;DHT22;6418;50.824;4.718;2023-03-14T05:04:11;9.80;99.90
12708;DHT22;6418;50.824;4.718;2023-03-14T05:06:37;9.80;99.90
12708;DHT22;6418;50.824;4.718;2023-03-14T05:09:05;9.70;99.90
12708;DHT22;6418;50.824;4.718;2023-03-14T05:11:31;9.80;99.90
12708;DHT22;6418;50.824;4.718;2023-03-14T05:13:59;9.80;99.90
12708;DHT22;6418;50.824;4.718;2023-03-14T05:16:26;9.90;99.90
12708;DHT22;6418;50.824;4.718;2023-03-14T05:18:54;9.80;99.90
12708;DHT22;6418;50.824;4.718;2023-03-14T05:21:21;9.80;99.90
12708;DHT22;6418;50.824;4.718;2023-03-14T05:23:48;9.80;99.90
12708;DHT22;6418;50.824;4.718;2023-03-14T05:26:15;9.80;99.90
12708;DHT22;6418;50.824;4.718;2023-03-14T05:28:43;9.80;99.90
12708;DHT22;6418;50.824;4.718;2023-03-14T05:31:10;9.80;99.90
12708;DHT22;6418;50.824;4.718;2023-03-14T05:33:37;9.90;99.90
12708;DHT22;6418;50.824;4.718;2023-03-14T05:36:06;9.90;99.90
12708;DHT22;6418;50.824;4.718;2023-03-14T05:38:33;9.80;99.90
12708;DHT22;6418;50.824;4.718;2023-03-14T05:41:00;9.90;99.90
12708;DHT22;6418;50.824;4.718;2023-03-14T05:43:27;9.90;99.90
12708;DHT22;6418;50.824;4.718;2023-03-14T05:45:54;9.80;99.90
12708;DHT22;6418;50.824;4.718;2023-03-14T05:48:20;9.80;99.90
12708;DHT22;6418;50.824;4.718;2023-03-14T05:50:47;9.80;99.90
12708;DHT22;6418;50.824;4.718;2023-03-14T05:53:16;9.80;99.90
12708;DHT22;6418;50.824;4.718;2023-03-14T05:55:43;9.90;99.90
12708;DHT22;6418;50.824;4.718;2023-03-14T05:58:09;9.90;99.90
12708;DHT22;6418;50.824;4.718;2023-03-14T06:00:36;9.80;99.90
12708;DHT22;6418;50.824;4.718;2023-03-14T06:03:03;10.10;99.90
12708;DHT22;6418;50.824;4.718;2023-03-14T06:05:30;9.90;99.90
12708;DHT22;6418;50.824;4.718;2023-03-14T06:07:57;9.90;99.90
12708;DHT22;6418;50.824;4.718;2023-03-14T06:10:25;9.90;99.90
12708;DHT22;6418;50.824;4.718;2023-03-14T06:12:52;9.90;99.90
12708;DHT22;6418;50.824;4.718;2023-03-14T06:15:19;9.90;99.90
12708;DHT22;6418;50.824;4.718;2023-03-14T06:17:46;9.90;99.90
12708;DHT22;6418;50.824;4.718;2023-03-14T06:20:13;10.00;99.90
12708;DHT22;6418;50.824;4.718;2023-03-14T06:22:40;9.90;99.90
12708;DHT22;6418;50.824;4.718;2023-03-14T06:25:09;9.90;99.90
12708;DHT22;6418;50.824;4.718;2023-03-14T06:27:37;10.00;99.90
12708;DHT22;6418;50.824;4.718;2023-03-14T06:30:05;10.00;99.90
12708;DHT22;6418;50.824;4.718;2023-03-14T06:32:33;9.90;99.90
12708;DHT22;6418;50.824;4.718;2023-03-14T06:35:00;10.00;99.90
12708;DHT22;6418;50.824;4.718;2023-03-14T06:37:27;10.00;99.90
12708;DHT22;6418;50.824;4.718;2023-03-14T06:39:54;10.00;99.90
12708;DHT22;6418;50.824;4.718;2023-03-14T06:42:21;10.00;99.90
12708;DHT22;6418;50.824;4.718;2023-03-14T06:44:50;10.00;99.90
12708;DHT22;6418;50.824;4.718;2023-03-14T06:47:17;10.00;99.90
12708;DHT22;6418;50.824;4.718;2023-03-14T06:49:44;10.00;99.90
12708;DHT22;6418;50.824;4.718;2023-03-14T06:52:10;10.10;99.90
12708;DHT22;6418;50.824;4.718;2023-03-14T06:54:37;10.00;99.90
12708;DHT22;6418;50.824;4.718;2023-03-14T06:57:04;10.00;99.90
12708;DHT22;6418;50.824;4.718;2023-03-14T06:59:31;10.00;99.90
12708;DHT22;6418;50.824;4.718;2023-03-14T07:01:59;10.00;99.90
12708;DHT22;6418;50.824;4.718;2023-03-14T07:04:26;10.00;99.90
12708;DHT22;6418;50.824;4.718;2023-03-14T07:06:54;10.00;99.90
12708;DHT22;6418;50.824;4.718;2023-03-14T07:09:21;10.00;99.90
12708;DHT22;6418;50.824;4.718;2023-03-14T07:11:48;10.00;99.90
12708;DHT22;6418;50.824;4.718;2023-03-14T07:14:15;10.00;99.90
12708;DHT22;6418;50.824;4.718;2023-03-14T07:16:42;10.00;99.90
12708;DHT22;6418;50.824;4.718;2023-03-14T07:19:10;9.80;99.90
12708;DHT22;6418;50.824;4.718;2023-03-14T07:42:58;8.40;99.90
12708;DHT22;6418;50.824;4.718;2023-03-14T07:45:25;7.90;99.90
12708;DHT22;6418;50.824;4.718;2023-03-14T07:47:52;7.90;99.90
12708;DHT22;6418;50.824;4.718;2023-03-14T07:50:22;7.80;99.90
12708;DHT22;6418;50.824;4.718;2023-03-14T07:52:50;7.70;99.90
12708;DHT22;6418;50.824;4.718;2023-03-14T07:55:17;7.70;99.90
12708;DHT22;6418;50.824;4.718;2023-03-14T07:57:44;7.70;99.90
12708;DHT22;6418;50.824;4.718;2023-03-14T08:00:13;8.10;99.90
12708;DHT22;6418;50.824;4.718;2023-03-14T08:02:40;7.50;99.90
12708;DHT22;6418;50.824;4.718;2023-03-14T08:05:08;7.60;99.90
12708;DHT22;6418;50.824;4.718;2023-03-14T08:07:35;7.60;99.90
12708;DHT22;6418;50.824;4.718;2023-03-14T08:10:03;7.50;99.90
12708;DHT22;6418;50.824;4.718;2023-03-14T08:12:30;7.50;99.90
12708;DHT22;6418;50.824;4.718;2023-03-14T08:14:57;7.50;99.90
12708;DHT22;6418;50.824;4.718;2023-03-14T08:17:26;7.40;99.90
12708;DHT22;6418;50.824;4.718;2023-03-14T08:19:53;7.50;99.90
12708;DHT22;6418;50.824;4.718;2023-03-14T08:22:20;7.50;99.90
12708;DHT22;6418;50.824;4.718;2023-03-14T08:24:47;7.40;99.90
12708;DHT22;6418;50.824;4.718;2023-03-14T08:27:14;7.50;99.90
12708;DHT22;6418;50.824;4.718;2023-03-14T08:29:40;7.40;99.90
12708;DHT22;6418;50.824;4.718;2023-03-14T08:32:08;7.40;99.90
12708;DHT22;6418;50.824;4.718;2023-03-14T08:34:36;7.40;99.90
12708;DHT22;6418;50.824;4.718;2023-03-14T08:37:05;7.40;99.90
12708;DHT22;6418;50.824;4.718;2023-03-14T08:39:32;7.30;99.90
12708;DHT22;6418;50.824;4.718;2023-03-14T08:41:59;7.30;99.90
12708;DHT22;6418;50.824;4.718;2023-03-14T08:44:25;7.20;99.90
12708;DHT22;6418;50.824;4.718;2023-03-14T08:46:52;7.20;99.90
12708;DHT22;6418;50.824;4.718;2023-03-14T08:49:19;7.20;99.90
12708;DHT22;6418;50.824;4.718;2023-03-14T08:51:48;7.20;99.90
12708;DHT22;6418;50.824;4.718;2023-03-14T08:54:14;7.20;99.90
12708;DHT22;6418;50.824;4.718;2023-03-14T08:56:41;7.20;99.90
12708;DHT22;6418;50.824;4.718;2023-03-14T08:59:08;7.20;99.90
12708;DHT22;6418;50.824;4.718;2023-03-14T09:01:36;7.20;99.90
12708;DHT22;6418;50.824;4.718;2023-03-14T09:04:03;7.20;99.90
12708;DHT22;6418;50.824;4.718;2023-03-14T09:06:30;7.20;99.90
12708;DHT22;6418;50.824;4.718;2023-03-14T09:08:58;7.20;99.90
12708;DHT22;6418;50.824;4.718;2023-03-14T09:11:25;7.20;99.90
12708;DHT22;6418;50.824;4.718;2023-03-14T09:13:52;7.10;99.90
12708;DHT22;6418;50.824;4.718;2023-03-14T09:16:19;7.10;99.90
12708;DHT22;6418;50.824;4.718;2023-03-14T09:18:46;6.90;99.90
12708;DHT22;6418;50.824;4.718;2023-03-14T09:21:13;6.90;99.90
12708;DHT22;6418;50.824;4.718;2023-03-14T09:23:40;6.90;99.90
12708;DHT22;6418;50.824;4.718;2023-03-14T09:26:08;7.00;99.90
12708;DHT22;6418;50.824;4.718;2023-03-14T09:28:35;6.90;99.90
12708;DHT22;6418;50.824;4.718;2023-03-14T09:31:06;7.00;99.90
12708;DHT22;6418;50.824;4.718;2023-03-14T09:33:33;7.00;99.90
12708;DHT22;6418;50.824;4.718;2023-03-14T09:36:01;7.10;99.90
12708;DHT22;6418;50.824;4.718;2023-03-14T09:38:28;6.90;99.90
12708;DHT22;6418;50.824;4.718;2023-03-14T09:40:55;6.90;99.90
12708;DHT22;6418;50.824;4.718;2023-03-14T09:43:27;6.90;99.90
12708;DHT22;6418;50.824;4.718;2023-03-14T09:45:55;6.90;99.90
12708;DHT22;6418;50.824;4.718;2023-03-14T09:48:29;6.80;99.90
12708;DHT22;6418;50.824;4.718;2023-03-14T09:50:58;6.80;99.90
12708;DHT22;6418;50.824;4.718;2023-03-14T09:53:32;6.80;99.90
12708;DHT22;6418;50.824;4.718;2023-03-14T09:56:01;6.70;99.90
12708;DHT22;6418;50.824;4.718;2023-03-14T09:58:30;7.00;99.90
12708;DHT22;6418;50.824;4.718;2023-03-14T10:00:58;6.70;99.90
12708;DHT22;6418;50.824;4.718;2023-03-14T10:03:29;6.60;99.90
12708;DHT22;6418;50.824;4.718;2023-03-14T10:05:58;6.60;99.90
12708;DHT22;6418;50.824;4.718;2023-03-14T10:08:25;6.60;99.90
12708;DHT22;6418;50.824;4.718;2023-03-14T10:10:52;6.60;99.90
12708;DHT22;6418;50.824;4.718;2023-03-14T10:13:21;6.60;99.90
12708;DHT22;6418;50.824;4.718;2023-03-14T10:15:54;6.60;99.90
12708;DHT22;6418;50.824;4.718;2023-03-14T10:18:23;6.60;99.90
12708;DHT22;6418;50.824;4.718;2023-03-14T10:21:02;6.70;99.90
12708;DHT22;6418;50.824;4.718;2023-03-14T10:23:32;6.80;99.90
12708;DHT22;6418;50.824;4.718;2023-03-14T10:26:05;6.80;99.90
12708;DHT22;6418;50.824;4.718;2023-03-14T10:28:34;7.10;99.90
12708;DHT22;6418;50.824;4.718;2023-03-14T10:31:03;6.90;99.90
12708;DHT22;6418;50.824;4.718;2023-03-14T10:33:32;6.90;99.90
12708;DHT22;6418;50.824;4.718;2023-03-14T10:36:01;7.00;99.90
12708;DHT22;6418;50.824;4.718;2023-03-14T10:38:30;6.90;99.90
12708;DHT22;6418;50.824;4.718;2023-03-14T10:40:57;6.90;99.90
12708;DHT22;6418;50.824;4.718;2023-03-14T10:43:27;6.90;99.90
12708;DHT22;6418;50.824;4.718;2023-03-14T10:45:56;6.80;99.90
12708;DHT22;6418;50.824;4.718;2023-03-14T10:48:30;6.80;99.90
12708;DHT22;6418;50.824;4.718;2023-03-14T10:51:03;7.20;99.90
12708;DHT22;6418;50.824;4.718;2023-03-14T10:53:34;6.70;99.90
12708;DHT22;6418;50.824;4.718;2023-03-14T10:56:05;6.70;99.90
12708;DHT22;6418;50.824;4.718;2023-03-14T10:58:37;6.60;99.90
12708;DHT22;6418;50.824;4.718;2023-03-14T11:01:16;6.70;99.90
12708;DHT22;6418;50.824;4.718;2023-03-14T11:03:53;6.60;99.90
12708;DHT22;6418;50.824;4.718;2023-03-14T11:06:25;6.50;99.90
12708;DHT22;6418;50.824;4.718;2023-03-14T11:08:58;6.50;99.90
12708;DHT22;6418;50.824;4.718;2023-03-14T11:11:31;6.50;99.90
12708;DHT22;6418;50.824;4.718;2023-03-14T11:14:07;6.50;99.90
12708;DHT22;6418;50.824;4.718;2023-03-14T11:16:45;6.50;99.90
12708;DHT22;6418;50.824;4.718;2023-03-14T11:19:41;6.40;99.90
12708;DHT22;6418;50.824;4.718;2023-03-14T11:22:17;6.30;99.90
12708;DHT22;6418;50.824;4.718;2023-03-14T11:25:05;6.40;99.90
12708;DHT22;6418;50.824;4.718;2023-03-14T11:27:41;6.20;99.90
12708;DHT22;6418;50.824;4.718;2023-03-14T11:30:18;6.20;99.90
12708;DHT22;6418;50.824;4.718;2023-03-14T11:32:47;6.00;99.90
12708;DHT22;6418;50.824;4.718;2023-03-14T11:35:24;6.00;99.90
12708;DHT22;6418;50.824;4.718;2023-03-14T11:37:54;5.90;99.90
12708;DHT22;6418;50.824;4.718;2023-03-14T11:40:24;5.90;99.90
12708;DHT22;6418;50.824;4.718;2023-03-14T11:42:59;5.80;99.90
12708;DHT22;6418;50.824;4.718;2023-03-14T11:45:31;5.80;99.90
12708;DHT22;6418;50.824;4.718;2023-03-14T11:48:13;5.80;99.90
12708;DHT22;6418;50.824;4.718;2023-03-14T11:50:44;5.70;99.90
12708;DHT22;6418;50.824;4.718;2023-03-14T11:53:16;5.70;99.90
12708;DHT22;6418;50.824;4.718;2023-03-14T11:55:45;5.80;99.90
12708;DHT22;6418;50.824;4.718;2023-03-14T11:58:15;5.80;99.90
12708;DHT22;6418;50.824;4.718;2023-03-14T12:00:45;5.80;99.90
12708;DHT22;6418;50.824;4.718;2023-03-14T12:03:19;5.90;99.90
12708;DHT22;6418;50.824;4.718;2023-03-14T12:05:57;5.90;99.90
12708;DHT22;6418;50.824;4.718;2023-03-14T12:08:53;6.00;99.90
12708;DHT22;6418;50.824;4.718;2023-03-14T12:11:31;6.00;99.90
12708;DHT22;6418;50.824;4.718;2023-03-14T12:14:00;6.00;99.90
12708;DHT22;6418;50.824;4.718;2023-03-14T12:16:33;5.90;99.90
12708;DHT22;6418;50.824;4.718;2023-03-14T12:19:38;5.90;99.90
12708;DHT22;6418;50.824;4.718;2023-03-14T12:22:20;5.90;99.90
12708;DHT22;6418;50.824;4.718;2023-03-14T12:24:51;6.00;99.90
12708;DHT22;6418;50.824;4.718;2023-03-14T12:27:47;6.00;99.90
12708;DHT22;6418;50.824;4.718;2023-03-14T12:30:27;6.00;99.90
12708;DHT22;6418;50.824;4.718;2023-03-14T12:36:15;6.00;99.90
12708;DHT22;6418;50.824;4.718;2023-03-14T12:39:07;6.00;99.90
12708;DHT22;6418;50.824;4.718;2023-03-14T12:41:40;6.10;99.90
12708;DHT22;6418;50.824;4.718;2023-03-14T12:44:38;6.10;99.90
12708;DHT22;6418;50.824;4.718;2023-03-14T12:50:15;6.00;99.90
12708;DHT22;6418;50.824;4.718;2023-03-14T12:52:58;5.90;99.90
12708;DHT22;6418;50.824;4.718;2023-03-14T12:55:35;5.90;99.90
12708;DHT22;6418;50.824;4.718;2023-03-14T12:58:09;5.80;99.90
12708;DHT22;6418;50.824;4.718;2023-03-14T13:00:40;6.20;99.90
12708;DHT22;6418;50.824;4.718;2023-03-14T13:03:18;5.70;99.90
12708;DHT22;6418;50.824;4.718;2023-03-14T13:05:55;5.70;99.90
12708;DHT22;6418;50.824;4.718;2023-03-14T13:08:35;5.70;99.90
12708;DHT22;6418;50.824;4.718;2023-03-14T13:11:05;5.70;99.90
12708;DHT22;6418;50.824;4.718;2023-03-14T13:13:34;5.70;99.90
12708;DHT22;6418;50.824;4.718;2023-03-14T13:16:03;5.70;99.90
12708;DHT22;6418;50.824;4.718;2023-03-14T13:18:35;5.70;99.90
12708;DHT22;6418;50.824;4.718;2023-03-14T13:21:05;5.70;99.90
12708;DHT22;6418;50.824;4.718;2023-03-14T13:23:34;5.70;99.90
12708;DHT22;6418;50.824;4.718;2023-03-14T13:26:10;5.70;99.90
12708;DHT22;6418;50.824;4.718;2023-03-14T13:28:37;5.80;99.90
12708;DHT22;6418;50.824;4.718;2023-03-14T13:31:05;5.70;99.90
12708;DHT22;6418;50.824;4.718;2023-03-14T13:33:33;5.80;99.90
12708;DHT22;6418;50.824;4.718;2023-03-14T13:36:02;5.80;99.90
12708;DHT22;6418;50.824;4.718;2023-03-14T13:38:31;5.80;99.90
12708;DHT22;6418;50.824;4.718;2023-03-14T13:41:00;5.80;99.90
12708;DHT22;6418;50.824;4.718;2023-03-14T13:43:33;5.80;99.90
12708;DHT22;6418;50.824;4.718;2023-03-14T13:46:05;5.80;99.90
12708;DHT22;6418;50.824;4.718;2023-03-14T13:48:35;5.80;99.90
12708;DHT22;6418;50.824;4.718;2023-03-14T13:51:05;5.80;99.90
12708;DHT22;6418;50.824;4.718;2023-03-14T13:53:32;5.70;99.90
12708;DHT22;6418;50.824;4.718;2023-03-14T13:56:10;5.30;99.90
12708;DHT22;6418;50.824;4.718;2023-03-14T13:58:39;5.00;99.90
12708;DHT22;6418;50.824;4.718;2023-03-14T14:01:13;5.10;99.90
12708;DHT22;6418;50.824;4.718;2023-03-14T14:03:41;5.00;99.90
12708;DHT22;6418;50.824;4.718;2023-03-14T14:06:16;5.10;99.90
12708;DHT22;6418;50.824;4.718;2023-03-14T14:08:46;5.20;99.90
12708;DHT22;6418;50.824;4.718;2023-03-14T14:11:21;5.50;99.90
12708;DHT22;6418;50.824;4.718;2023-03-14T14:13:50;5.30;99.90
12708;DHT22;6418;50.824;4.718;2023-03-14T14:16:20;5.30;99.90
12708;DHT22;6418;50.824;4.718;2023-03-14T14:18:51;5.30;99.90
12708;DHT22;6418;50.824;4.718;2023-03-14T14:21:18;5.40;99.90
12708;DHT22;6418;50.824;4.718;2023-03-14T14:23:45;5.50;99.90
12708;DHT22;6418;50.824;4.718;2023-03-14T14:26:15;5.40;99.90
12708;DHT22;6418;50.824;4.718;2023-03-14T14:28:43;5.60;99.90
12708;DHT22;6418;50.824;4.718;2023-03-14T14:31:20;5.70;99.90
12708;DHT22;6418;50.824;4.718;2023-03-14T14:33:55;5.70;99.90
12708;DHT22;6418;50.824;4.718;2023-03-14T14:36:24;5.80;99.90
12708;DHT22;6418;50.824;4.718;2023-03-14T14:38:54;5.90;99.90
12708;DHT22;6418;50.824;4.718;2023-03-14T14:41:21;6.00;99.90
12708;DHT22;6418;50.824;4.718;2023-03-14T14:43:48;6.10;99.90
12708;DHT22;6418;50.824;4.718;2023-03-14T14:46:19;6.10;99.90
12708;DHT22;6418;50.824;4.718;2023-03-14T14:48:47;6.20;99.90
12708;DHT22;6418;50.824;4.718;2023-03-14T14:51:30;6.30;99.90
12708;DHT22;6418;50.824;4.718;2023-03-14T14:54:10;6.30;99.90
12708;DHT22;6418;50.824;4.718;2023-03-14T14:56:38;6.30;99.90
12708;DHT22;6418;50.824;4.718;2023-03-14T14:59:06;6.30;99.90
12708;DHT22;6418;50.824;4.718;2023-03-14T15:01:37;6.40;99.90
12708;DHT22;6418;50.824;4.718;2023-03-14T15:04:10;6.40;99.90
12708;DHT22;6418;50.824;4.718;2023-03-14T15:06:39;6.40;99.90
12708;DHT22;6418;50.824;4.718;2023-03-14T15:09:08;6.30;99.90
12708;DHT22;6418;50.824;4.718;2023-03-14T15:11:36;6.30;99.90
12708;DHT22;6418;50.824;4.718;2023-03-14T15:14:03;6.10;99.90
12708;DHT22;6418;50.824;4.718;2023-03-14T15:16:32;6.00;99.90
12708;DHT22;6418;50.824;4.718;2023-03-14T15:19:02;5.70;99.90
12708;DHT22;6418;50.824;4.718;2023-03-14T15:21:31;5.60;99.90
12708;DHT22;6418;50.824;4.718;2023-03-14T15:23:58;5.50;99.90
12708;DHT22;6418;50.824;4.718;2023-03-14T15:26:27;5.40;99.90
12708;DHT22;6418;50.824;4.718;2023-03-14T15:28:54;5.60;99.90
12708;DHT22;6418;50.824;4.718;2023-03-14T15:31:21;4.80;99.90
12708;DHT22;6418;50.824;4.718;2023-03-14T15:33:48;4.80;99.90
12708;DHT22;6418;50.824;4.718;2023-03-14T15:36:22;4.80;99.90
12708;DHT22;6418;50.824;4.718;2023-03-14T15:38:51;4.90;99.90
12708;DHT22;6418;50.824;4.718;2023-03-14T15:41:18;4.90;99.90
12708;DHT22;6418;50.824;4.718;2023-03-14T15:43:46;4.90;99.90
12708;DHT22;6418;50.824;4.718;2023-03-14T15:46:13;5.00;99.90
12708;DHT22;6418;50.824;4.718;2023-03-14T15:48:42;5.00;99.90
12708;DHT22;6418;50.824;4.718;2023-03-14T15:51:09;5.00;99.90
12708;DHT22;6418;50.824;4.718;2023-03-14T15:53:38;5.10;99.90
12708;DHT22;6418;50.824;4.718;2023-03-14T15:56:07;5.10;99.90
12708;DHT22;6418;50.824;4.718;2023-03-14T15:58:34;5.10;99.90
12708;DHT22;6418;50.824;4.718;2023-03-14T16:01:01;5.20;99.90
12708;DHT22;6418;50.824;4.718;2023-03-14T16:03:28;5.20;99.90
12708;DHT22;6418;50.824;4.718;2023-03-14T16:05:55;5.20;99.90
12708;DHT22;6418;50.824;4.718;2023-03-14T16:08:22;5.30;99.90
12708;DHT22;6418;50.824;4.718;2023-03-14T16:10:52;5.20;99.90
12708;DHT22;6418;50.824;4.718;2023-03-14T16:13:19;5.30;99.90
12708;DHT22;6418;50.824;4.718;2023-03-14T16:15:57;5.20;99.90
12708;DHT22;6418;50.824;4.718;2023-03-14T16:18:24;5.20;99.90
12708;DHT22;6418;50.824;4.718;2023-03-14T16:20:54;5.20;99.90
12708;DHT22;6418;50.824;4.718;2023-03-14T16:23:21;5.20;99.90
12708;DHT22;6418;50.824;4.718;2023-03-14T16:25:49;5.20;99.90
12708;DHT22;6418;50.824;4.718;2023-03-14T16:28:17;5.80;99.90
12708;DHT22;6418;50.824;4.718;2023-03-14T16:30:44;5.20;99.90
12708;DHT22;6418;50.824;4.718;2023-03-14T16:33:12;5.20;99.90
12708;DHT22;6418;50.824;4.718;2023-03-14T16:35:39;5.10;99.90
12708;DHT22;6418;50.824;4.718;2023-03-14T16:38:06;5.10;99.90
12708;DHT22;6418;50.824;4.718;2023-03-14T16:40:33;5.10;99.90
12708;DHT22;6418;50.824;4.718;2023-03-14T16:43:00;5.10;99.90